Topsail Beach, North Carolina
Current Conditions -  °F | °C
As of 5:56 AM on Sunday 23 Nov 2014 (Local Time) from KNCA Reporting Station
Light Rain Light Rain  
Wind Chill: 48°   Ceiling: 11000
Heat Index: 48°   Visibility: 10mi
Dew Point: 44°   Wind: 0mph
Humidity: 86%   Direction: NA
Pressure: 30.27"   Gusts: NA
Location:  34.4895°N, 77.514°W
Report Text: KNCA 231056Z AUTO 00000KT 10SM -RA BKN110 09/07 A3027 RMK AO2 RAB51 SLP253 P0000 T00890067 $
Loading
Personal Weather Stations






























Interactive Weather Map New forecast layout! Learn more

10-Day Weather Forecast

Advertisements
Track Severe Weather on mobile